Time;durP1;ratioP1;P1;durP2;ratioP2;P2;SDS_P1;SDS_P2;PMS_P1;PMS_P2;Temp;Humidity;BMP_temperature;BMP_pressure;BME280_temperature;BME280_humidity;BME280_pressure;Samples;Min_cycle;Max_cycle;Signal;HPM_P1;HPM_P2
2023/04/23 00:01:07;;;;;;;19.67;5.83;;;;;;;41.97;36.73;100689.19;6182556;23;20800;-77
2023/04/23 00:03:35;;;;;;;18.40;5.53;;;;;;;41.99;36.13;100687.72;6184039;23;20400;-76
2023/04/23 00:06:06;;;;;;;14.30;4.10;;;;;;;41.79;36.09;100703.00;6184590;23;20383;-75
2023/04/23 00:08:33;;;;;;;20.97;4.90;;;;;;;41.66;36.45;100704.06;6183956;23;20446;-76
2023/04/23 00:11:00;;;;;;;16.90;6.47;;;;;;;41.41;36.82;100700.47;6184836;23;20388;-77
2023/04/23 00:13:27;;;;;;;22.33;6.30;;;;;;;41.72;36.62;100693.75;6184429;23;20935;-76
2023/04/23 00:15:53;;;;;;;25.73;5.90;;;;;;;41.86;36.93;100691.56;6184717;23;20414;-76
2023/04/23 00:18:19;;;;;;;15.80;5.37;;;;;;;41.49;36.61;100675.09;6184157;23;20440;-76
2023/04/23 00:20:45;;;;;;;14.03;5.83;;;;;;;41.62;36.40;100684.13;6184698;23;20737;-77
2023/04/23 00:23:11;;;;;;;16.13;6.10;;;;;;;41.60;36.36;100680.91;6184497;23;20395;-77
2023/04/23 00:25:37;;;;;;;14.87;4.33;;;;;;;41.80;36.05;100685.53;6183996;23;20454;-76
2023/04/23 00:28:03;;;;;;;12.77;4.43;;;;;;;41.75;36.15;100683.03;6183987;23;20423;-76
2023/04/23 00:30:29;;;;;;;15.50;4.80;;;;;;;41.79;36.50;100689.38;6184718;23;20439;-76
2023/04/23 00:32:55;;;;;;;22.93;6.90;;;;;;;41.81;36.57;100684.41;6184114;23;20462;-76
2023/04/23 00:35:22;;;;;;;21.73;5.00;;;;;;;41.79;36.89;100685.88;6184122;23;20407;-75
2023/04/23 00:37:48;;;;;;;16.17;4.23;;;;;;;42.04;36.86;100697.59;6184372;23;20376;-76
2023/04/23 00:40:14;;;;;;;19.60;5.50;;;;;;;42.02;36.45;100702.59;6184409;23;20379;-76
2023/04/23 00:42:40;;;;;;;16.27;5.73;;;;;;;42.10;36.51;100697.03;6184446;23;20407;-76
2023/04/23 00:45:07;;;;;;;21.37;6.53;;;;;;;42.18;35.93;100684.50;6186013;23;20399;-77
2023/04/23 00:47:34;;;;;;;13.97;4.00;;;;;;;42.09;36.12;100679.09;6184175;23;20416;-77
2023/04/23 00:50:01;;;;;;;16.20;5.63;;;;;;;42.06;36.43;100698.88;6184250;23;20410;-76
2023/04/23 00:52:28;;;;;;;17.97;5.03;;;;;;;42.02;36.48;100686.25;6184153;23;20388;-76
2023/04/23 00:54:54;;;;;;;18.30;5.00;;;;;;;42.20;36.30;100684.13;6185791;23;20383;-76
2023/04/23 00:57:22;;;;;;;12.30;4.77;;;;;;;42.27;36.09;100681.63;6183965;23;20383;-76
2023/04/23 00:59:48;;;;;;;26.73;5.57;;;;;;;42.34;36.10;100682.66;6184326;23;20467;-76
2023/04/23 01:02:15;;;;;;;15.53;5.80;;;;;;;42.27;36.24;100684.38;6183921;23;20706;-77
2023/04/23 01:04:43;;;;;;;10.20;5.40;;;;;;;42.07;36.02;100677.84;6184161;23;20373;-76
2023/04/23 01:07:11;;;;;;;17.23;5.17;;;;;;;42.20;36.05;100662.34;6183977;23;20368;-77
2023/04/23 01:09:38;;;;;;;19.10;6.00;;;;;;;41.93;36.70;100664.56;6186102;23;20361;-76
2023/04/23 01:12:10;;;;;;;14.10;4.77;;;;;;;42.01;36.64;100671.03;6183979;23;20372;-79
2023/04/23 01:14:37;;;;;;;14.63;4.97;;;;;;;41.98;36.57;100667.03;6183870;23;20369;-76
2023/04/23 01:17:04;;;;;;;11.17;3.53;;;;;;;41.89;36.77;100669.09;6183647;23;20444;-76
2023/04/23 01:19:30;;;;;;;17.53;4.90;;;;;;;42.03;36.49;100660.59;6184093;23;20437;-76
2023/04/23 01:22:00;;;;;;;11.03;4.20;;;;;;;42.11;36.47;100660.50;6183661;23;20467;-76
2023/04/23 01:24:27;;;;;;;19.30;4.53;;;;;;;41.91;36.83;100655.91;6183799;23;20764;-76
2023/04/23 01:26:54;;;;;;;11.50;4.50;;;;;;;41.93;36.58;100652.84;6183989;23;20384;-76
2023/04/23 01:29:20;;;;;;;18.83;5.93;;;;;;;42.01;35.68;100654.69;6183571;23;20785;-76
2023/04/23 01:31:47;;;;;;;13.27;5.23;;;;;;;42.06;36.43;100649.03;6184014;23;20841;-77
2023/04/23 01:34:14;;;;;;;14.10;4.30;;;;;;;41.98;36.16;100653.41;6183856;23;20408;-77
2023/04/23 01:36:42;;;;;;;16.40;5.00;;;;;;;41.86;36.78;100648.75;6183998;23;20430;-77
2023/04/23 01:39:08;;;;;;;15.53;4.63;;;;;;;41.77;36.54;100642.63;6183385;23;20451;-77
2023/04/23 01:41:34;;;;;;;17.10;5.50;;;;;;;42.02;35.61;100639.94;6184018;23;20479;-77
2023/04/23 01:44:01;;;;;;;16.00;5.10;;;;;;;41.79;36.24;100634.09;6183773;23;20380;-76
2023/04/23 01:46:27;;;;;;;15.73;5.10;;;;;;;41.82;36.79;100628.00;6183814;23;20384;-76
2023/04/23 01:48:53;;;;;;;24.13;7.07;;;;;;;41.86;36.43;100637.06;6183358;23;20444;-77
2023/04/23 01:51:19;;;;;;;19.70;6.67;;;;;;;41.98;35.99;100642.53;6183911;23;20383;-76
2023/04/23 01:53:45;;;;;;;15.70;5.87;;;;;;;41.92;35.81;100634.91;6183679;23;20389;-77
2023/04/23 01:56:13;;;;;;;14.60;4.70;;;;;;;42.00;35.99;100631.31;6183553;23;20443;-77
2023/04/23 01:58:39;;;;;;;19.70;6.13;;;;;;;41.81;36.52;100627.22;6183687;23;20395;-77
2023/04/23 02:01:05;;;;;;;22.00;4.80;;;;;;;41.83;36.55;100621.41;6185414;23;20400;-77
2023/04/23 02:03:32;;;;;;;18.13;5.20;;;;;;;42.07;35.29;100605.06;6183360;23;20411;-77
2023/04/23 02:05:59;;;;;;;17.77;5.20;;;;;;;42.22;35.57;100611.00;6185428;23;20416;-76
2023/04/23 02:08:27;;;;;;;20.83;5.53;;;;;;;42.05;35.77;100603.81;6182892;23;20919;-76
2023/04/23 02:10:53;;;;;;;11.87;4.10;;;;;;;42.21;35.77;100607.47;6183792;23;20840;-77
2023/04/23 02:13:19;;;;;;;21.47;6.00;;;;;;;42.17;36.23;100605.75;6183258;23;20404;-76
2023/04/23 02:15:44;;;;;;;23.27;6.23;;;;;;;42.01;36.54;100598.25;6183567;23;20384;-77
2023/04/23 02:18:11;;;;;;;18.13;5.57;;;;;;;42.15;36.83;100592.44;6184443;23;20455;-77
2023/04/23 02:20:39;;;;;;;22.43;5.33;;;;;;;42.01;36.71;100587.34;6183461;23;20451;-76
2023/04/23 02:23:09;;;;;;;15.33;4.17;;;;;;;42.02;36.39;100580.78;6183316;23;20384;-77
2023/04/23 02:25:37;;;;;;;15.03;5.53;;;;;;;41.93;36.40;100571.09;6183338;23;20380;-77
2023/04/23 02:28:07;;;;;;;12.70;5.57;;;;;;;42.16;36.36;100564.09;6183001;23;20436;-76
2023/04/23 02:30:36;;;;;;;16.07;5.40;;;;;;;42.10;36.03;100559.97;6183381;23;20483;-76
2023/04/23 02:33:02;;;;;;;21.60;4.30;;;;;;;42.11;35.85;100564.28;6183246;23;20376;-76
2023/04/23 02:35:30;;;;;;;18.93;5.13;;;;;;;42.12;36.25;100577.59;6183283;23;20843;-76
2023/04/23 02:37:56;;;;;;;19.30;4.70;;;;;;;42.08;36.37;100586.78;6183106;23;20396;-76
2023/04/23 02:40:22;;;;;;;17.80;6.83;;;;;;;42.16;36.28;100588.63;6182933;23;20438;-76
2023/04/23 02:42:49;;;;;;;15.80;4.53;;;;;;;42.21;36.57;100591.13;6182951;23;20471;-76
2023/04/23 02:45:16;;;;;;;26.30;5.20;;;;;;;41.90;37.22;100594.41;6180943;23;20408;-76
2023/04/23 02:47:41;;;;;;;19.33;5.33;;;;;;;41.98;36.71;100585.31;6182856;23;20419;-76
2023/04/23 02:50:08;;;;;;;24.47;6.00;;;;;;;42.02;36.55;100591.66;6182822;23;20379;-76
2023/04/23 02:52:34;;;;;;;14.13;4.67;;;;;;;41.81;37.01;100594.50;6182512;23;20388;-76
2023/04/23 02:55:01;;;;;;;16.13;5.40;;;;;;;41.98;36.77;100581.78;6183167;23;20376;-77
2023/04/23 02:57:27;;;;;;;23.77;4.97;;;;;;;41.79;37.21;100591.31;6183118;23;20372;-77
2023/04/23 02:59:53;;;;;;;13.10;4.77;;;;;;;42.15;36.54;100600.63;6182821;23;20380;-76
2023/04/23 03:02:19;;;;;;;16.27;5.43;;;;;;;41.99;36.88;100600.53;6182867;23;20932;-76
2023/04/23 03:04:45;;;;;;;18.70;7.10;;;;;;;42.25;37.00;100597.47;6182898;23;20412;-77
2023/04/23 03:07:12;;;;;;;12.50;4.47;;;;;;;42.25;36.31;100592.03;6182765;23;20391;-77
2023/04/23 03:09:38;;;;;;;20.10;5.03;;;;;;;42.20;36.61;100589.53;6183021;23;20380;-76
2023/04/23 03:12:04;;;;;;;21.83;5.97;;;;;;;42.14;36.62;100579.97;6182814;23;20492;-76
2023/04/23 03:14:30;;;;;;;16.80;4.73;;;;;;;42.10;36.84;100584.50;6182885;23;20396;-76
2023/04/23 03:16:56;;;;;;;18.63;7.27;;;;;;;41.71;36.60;100583.22;6182578;23;20443;-77
2023/04/23 03:19:22;;;;;;;15.03;4.50;;;;;;;41.79;36.30;100582.34;6183042;23;20383;-77
2023/04/23 03:21:48;;;;;;;14.33;4.83;;;;;;;41.95;36.46;100585.22;6182347;23;20412;-77
2023/04/23 03:24:15;;;;;;;16.97;4.90;;;;;;;42.01;36.62;100583.84;6182263;23;20387;-76
2023/04/23 03:26:41;;;;;;;15.87;4.50;;;;;;;42.05;36.22;100579.28;6182709;23;20447;-76
2023/04/23 03:29:07;;;;;;;16.00;6.20;;;;;;;42.02;36.77;100588.94;6182753;23;20443;-76
2023/04/23 03:31:33;;;;;;;18.10;5.63;;;;;;;41.93;36.50;100585.56;6182742;23;20462;-76
2023/04/23 03:33:59;;;;;;;19.90;5.17;;;;;;;42.04;36.44;100583.16;6182915;23;20404;-76
2023/04/23 03:36:25;;;;;;;15.70;5.17;;;;;;;42.13;36.08;100583.84;6182609;23;20412;-78
2023/04/23 03:38:51;;;;;;;14.93;5.00;;;;;;;42.12;35.79;100584.97;6182039;23;20377;-79
2023/04/23 03:41:17;;;;;;;17.00;4.90;;;;;;;42.09;35.52;100600.06;6182620;23;20416;-76
2023/04/23 03:43:43;;;;;;;13.80;5.20;;;;;;;41.97;35.81;100585.66;6182832;23;20387;-76
2023/04/23 03:46:09;;;;;;;22.20;7.50;;;;;;;41.99;35.84;100581.47;6182579;23;20392;-76
2023/04/23 03:48:35;;;;;;;19.73;5.63;;;;;;;42.15;36.13;100592.44;6182624;23;20490;-76
2023/04/23 03:51:01;;;;;;;18.93;4.43;;;;;;;42.00;36.38;100591.22;6182620;23;20388;-76
2023/04/23 03:53:27;;;;;;;16.60;4.33;;;;;;;42.10;36.01;100587.22;6182678;23;20499;-78
2023/04/23 03:55:53;;;;;;;21.47;6.97;;;;;;;42.21;35.71;100590.31;6182065;23;20470;-77
2023/04/23 03:58:19;;;;;;;19.03;5.90;;;;;;;41.91;36.59;100587.81;6182205;23;20387;-77
2023/04/23 04:00:45;;;;;;;11.53;4.70;;;;;;;42.05;36.55;100592.91;6182427;23;20408;-76
2023/04/23 04:03:11;;;;;;;14.00;4.63;;;;;;;42.12;35.95;100593.94;6184562;23;20363;-77
2023/04/23 04:05:37;;;;;;;13.77;4.60;;;;;;;42.13;35.91;100600.97;6181940;23;20771;-76
2023/04/23 04:08:04;;;;;;;16.57;5.77;;;;;;;42.21;35.74;100607.47;6182650;23;20428;-77
2023/04/23 04:10:31;;;;;;;11.77;4.00;;;;;;;41.95;35.69;100618.69;6182523;23;20392;-78
2023/04/23 04:12:57;;;;;;;18.57;6.10;;;;;;;42.02;35.87;100621.66;6182446;23;20853;-77
2023/04/23 04:15:23;;;;;;;16.40;4.53;;;;;;;42.02;35.87;100615.41;6184305;23;20371;-77
2023/04/23 04:17:49;;;;;;;27.47;6.60;;;;;;;42.09;35.96;100619.13;6182435;23;20468;-77
2023/04/23 04:20:15;;;;;;;20.40;5.20;;;;;;;42.06;36.00;100632.66;6182084;23;20515;-77
2023/04/23 04:22:41;;;;;;;15.87;4.80;;;;;;;42.03;36.27;100628.69;6182706;23;20467;-76
2023/04/23 04:25:07;;;;;;;19.93;5.10;;;;;;;42.09;36.47;100623.81;6184279;23;20367;-78
2023/04/23 04:27:33;;;;;;;17.17;4.90;;;;;;;42.03;35.88;100620.50;6180326;22;22275;-76
2023/04/23 04:30:04;;;;;;;17.17;5.93;;;;;;;42.19;34.89;100619.88;6182336;23;20494;-77
2023/04/23 04:32:31;;;;;;;31.50;6.90;;;;;;;42.12;34.73;100612.22;6182441;23;20396;-77
2023/04/23 04:34:57;;;;;;;12.70;5.50;;;;;;;42.05;34.29;100611.97;6181749;23;20462;-77
2023/04/23 04:37:23;;;;;;;19.70;6.20;;;;;;;42.20;33.93;100616.00;6182285;23;20391;-78
2023/04/23 04:39:50;;;;;;;16.83;5.00;;;;;;;42.00;34.14;100629.38;6182402;23;20388;-78
2023/04/23 04:42:16;;;;;;;17.03;5.43;;;;;;;42.19;34.26;100633.50;6181676;23;20446;-78
2023/04/23 04:44:42;;;;;;;16.00;5.97;;;;;;;42.21;35.72;100642.13;6182493;23;20400;-77
2023/04/23 04:47:08;;;;;;;19.63;6.07;;;;;;;42.14;36.40;100645.38;6181588;23;20406;-76
2023/04/23 04:49:35;;;;;;;23.87;5.63;;;;;;;42.21;37.09;100658.47;6182487;23;20768;-76
2023/04/23 04:52:00;;;;;;;37.73;7.43;;;;;;;42.18;36.56;100662.69;6185460;23;20802;-76
2023/04/23 04:54:26;;;;;;;17.23;5.97;;;;;;;41.97;35.78;100651.03;6184393;23;20473;-77
2023/04/23 04:56:52;;;;;;;14.53;4.70;;;;;;;42.06;36.51;100649.81;6184094;23;20427;-77
2023/04/23 04:59:18;;;;;;;22.50;4.93;;;;;;;41.70;37.27;100658.69;6184263;23;20740;-76
2023/04/23 05:01:45;;;;;;;20.73;5.30;;;;;;;41.59;37.19;100666.50;6183996;23;20963;-78
2023/04/23 05:04:11;;;;;;;27.97;6.07;;;;;;;41.70;37.12;100664.16;6183482;23;20454;-76
2023/04/23 05:06:37;;;;;;;20.67;7.70;;;;;;;41.44;35.96;100666.34;6184296;23;20392;-76
2023/04/23 05:09:02;;;;;;;13.83;5.03;;;;;;;41.42;35.91;100674.03;6184491;23;20431;-76
2023/04/23 05:11:28;;;;;;;15.90;5.10;;;;;;;41.59;35.90;100671.94;6184122;23;20392;-76
2023/04/23 05:13:56;;;;;;;17.93;8.00;;;;;;;41.40;36.92;100658.06;6183861;23;20479;-76
2023/04/23 05:16:23;;;;;;;21.70;4.80;;;;;;;41.45;36.96;100668.72;6184050;23;20401;-77
2023/04/23 05:18:48;;;;;;;16.63;5.50;;;;;;;41.47;36.84;100671.13;6183944;23;20756;-76
2023/04/23 05:21:15;;;;;;;18.40;4.70;;;;;;;41.59;36.19;100669.22;6183955;23;20391;-76
2023/04/23 05:23:42;;;;;;;17.00;6.17;;;;;;;41.43;36.03;100667.47;6183728;23;20427;-78
2023/04/23 05:26:08;;;;;;;16.57;6.40;;;;;;;41.48;35.40;100680.88;6183504;23;20779;-76
2023/04/23 05:28:35;;;;;;;24.00;6.37;;;;;;;41.44;35.48;100688.94;6183334;23;20958;-76
2023/04/23 05:31:01;;;;;;;24.70;6.23;;;;;;;41.36;35.10;100697.94;6183993;23;20387;-76
2023/04/23 05:33:27;;;;;;;18.97;6.07;;;;;;;41.27;35.88;100686.31;6185624;23;20352;-76
2023/04/23 05:35:54;;;;;;;15.43;5.43;;;;;;;41.29;36.26;100687.56;6185501;23;20825;-76
2023/04/23 05:38:20;;;;;;;20.50;7.03;;;;;;;41.60;35.40;100689.88;6183989;23;20387;-76
2023/04/23 05:40:46;;;;;;;17.00;5.97;;;;;;;41.73;34.85;100690.69;6183905;23;20380;-76
2023/04/23 05:43:12;;;;;;;19.90;4.70;;;;;;;41.70;34.77;100688.66;6183855;23;20380;-76
2023/04/23 05:45:38;;;;;;;18.80;7.07;;;;;;;41.61;36.63;100668.88;6183938;23;20860;-76
2023/04/23 05:48:04;;;;;;;19.83;7.17;;;;;;;41.25;36.90;100675.78;6183575;23;20434;-75
2023/04/23 05:50:30;;;;;;;18.17;4.87;;;;;;;41.19;36.61;100668.13;6185628;23;20378;-76
2023/04/23 05:52:56;;;;;;;19.53;6.47;;;;;;;41.34;35.79;100673.78;6183702;23;20471;-76
2023/04/23 05:55:22;;;;;;;24.80;8.13;;;;;;;41.23;35.80;100680.75;6183749;23;20391;-77
2023/04/23 05:57:48;;;;;;;26.33;7.23;;;;;;;41.27;35.56;100670.78;6183709;23;20384;-77
2023/04/23 06:00:15;;;;;;;20.57;6.50;;;;;;;41.42;35.33;100668.59;6183702;23;20719;-77
2023/04/23 06:02:42;;;;;;;20.87;5.43;;;;;;;41.41;35.03;100667.00;6183155;23;20395;-76
2023/04/23 06:05:08;;;;;;;13.87;5.60;;;;;;;41.37;34.76;100676.97;6183657;23;20450;-76
2023/04/23 06:07:35;;;;;;;13.93;6.73;;;;;;;41.30;34.78;100672.03;6184846;23;20431;-78
2023/04/23 06:10:02;;;;;;;16.60;6.80;;;;;;;41.54;33.94;100677.59;6183659;23;20398;-77
2023/04/23 06:12:28;;;;;;;16.90;5.60;;;;;;;41.65;34.12;100696.25;6183319;23;20987;-76
2023/04/23 06:14:54;;;;;;;16.27;4.93;;;;;;;41.71;34.31;100692.97;6183624;23;20423;-76
2023/04/23 06:17:20;;;;;;;22.77;6.47;;;;;;;41.62;34.18;100697.72;6183533;23;20903;-76
2023/04/23 06:19:46;;;;;;;13.97;7.00;;;;;;;41.74;34.21;100695.06;6182505;23;21002;-76
2023/04/23 06:22:12;;;;;;;21.30;6.80;;;;;;;41.63;34.35;100702.03;6183298;23;20848;-76
2023/04/23 06:24:38;;;;;;;29.60;6.73;;;;;;;41.76;34.22;100700.97;6183255;23;20481;-76
2023/04/23 06:27:04;;;;;;;14.73;7.43;;;;;;;41.68;34.46;100698.28;6182345;23;20793;-76
2023/04/23 06:29:30;;;;;;;17.27;5.87;;;;;;;41.80;35.32;100706.53;6183167;23;20479;-77
2023/04/23 06:31:56;;;;;;;14.67;5.27;;;;;;;41.85;35.99;100700.84;6182459;23;20390;-77
2023/04/23 06:34:22;;;;;;;23.03;4.03;;;;;;;41.85;35.87;100711.75;6183002;23;20407;-77
2023/04/23 06:36:50;;;;;;;12.73;6.20;;;;;;;41.85;36.44;100717.22;6183055;23;20439;-77
2023/04/23 06:39:16;;;;;;;17.83;6.40;;;;;;;41.95;36.86;100729.63;6183423;23;20452;-76
2023/04/23 06:41:42;;;;;;;25.50;7.50;;;;;;;42.12;36.96;100732.16;6182973;23;20837;-78
2023/04/23 06:44:10;;;;;;;17.20;7.10;;;;;;;41.90;37.14;100736.06;6182237;23;20380;-79
2023/04/23 06:46:40;;;;;;;25.13;7.23;;;;;;;41.90;37.50;100744.25;6184858;23;20348;-77
2023/04/23 06:49:06;;;;;;;27.40;7.47;;;;;;;42.01;37.62;100759.03;6134667;23;20751;-77
2023/04/23 06:51:32;;;;;;;19.10;7.40;;;;;;;42.17;37.22;100761.13;6182959;23;20900;-78
2023/04/23 06:53:58;;;;;;;16.07;6.27;;;;;;;42.12;37.22;100773.03;6183222;23;20400;-79
2023/04/23 06:56:25;;;;;;;28.20;7.90;;;;;;;42.05;37.26;100764.59;6182039;23;20876;-78
2023/04/23 06:58:51;;;;;;;16.60;5.97;;;;;;;42.15;37.30;100772.34;6182916;23;20381;-78
2023/04/23 07:01:18;;;;;;;21.50;4.93;;;;;;;42.26;36.92;100770.81;6184713;23;20753;-79
2023/04/23 07:03:47;;;;;;;16.60;5.60;;;;;;;42.11;37.04;100774.97;6183068;23;20713;-77
2023/04/23 07:06:15;;;;;;;15.90;4.33;;;;;;;42.06;37.31;100775.16;6182703;23;20382;-78
2023/04/23 07:08:43;;;;;;;15.93;5.70;;;;;;;42.17;37.11;100789.16;6158008;23;20427;-80
2023/04/23 07:11:10;;;;;;;18.00;7.63;;;;;;;42.11;37.48;100790.50;6183128;23;20430;-80
2023/04/23 07:13:36;;;;;;;18.90;6.03;;;;;;;42.02;37.45;100796.03;6182762;23;20455;-78
2023/04/23 07:16:02;;;;;;;23.20;6.53;;;;;;;42.16;36.76;100803.13;6183035;23;20388;-79
2023/04/23 07:18:28;;;;;;;15.53;5.50;;;;;;;42.06;36.82;100809.81;6182905;23;20380;-78
2023/04/23 07:20:55;;;;;;;14.77;5.60;;;;;;;42.13;36.62;100796.41;6182627;23;20868;-78
2023/04/23 07:23:21;;;;;;;19.27;5.67;;;;;;;42.19;36.80;100814.19;6182839;23;20908;-77
2023/04/23 07:25:47;;;;;;;14.17;5.93;;;;;;;42.30;36.69;100828.97;6182722;23;20435;-77
2023/04/23 07:28:13;;;;;;;12.73;6.10;;;;;;;42.26;36.33;100838.94;6181901;23;20531;-77
2023/04/23 07:30:39;;;;;;;16.03;6.83;;;;;;;42.22;36.87;100837.22;6182852;23;20384;-79
2023/04/23 07:33:05;;;;;;;29.00;6.70;;;;;;;42.25;37.12;100851.00;6182072;23;20436;-80
2023/04/23 07:35:31;;;;;;;21.33;4.90;;;;;;;42.27;36.46;100864.28;6183163;23;20467;-81
2023/04/23 07:37:57;;;;;;;16.93;4.73;;;;;;;42.14;37.11;100858.75;6181980;23;20411;-80
2023/04/23 07:40:24;;;;;;;15.53;6.07;;;;;;;42.30;37.06;100869.88;6183182;23;20387;-80
2023/04/23 07:42:51;;;;;;;15.33;6.40;;;;;;;42.11;37.35;100873.06;6183031;23;20911;-82
2023/04/23 07:45:18;;;;;;;13.70;6.13;;;;;;;42.13;37.32;100876.25;6183082;23;20384;-81
2023/04/23 07:47:47;;;;;;;18.10;7.07;;;;;;;42.21;36.91;100881.97;6182915;23;20966;-79
2023/04/23 07:50:13;;;;;;;19.90;8.70;;;;;;;42.37;36.33;100889.19;6184677;23;20356;-80
2023/04/23 07:52:40;;;;;;;23.33;7.83;;;;;;;42.31;36.37;100887.81;6182796;23;20414;-79
2023/04/23 07:55:07;;;;;;;21.63;6.73;;;;;;;42.11;36.79;100891.34;6183080;23;20837;-81
2023/04/23 07:57:32;;;;;;;16.57;6.37;;;;;;;42.18;36.64;100886.19;6182931;23;20710;-82
2023/04/23 07:59:59;;;;;;;21.47;6.20;;;;;;;42.22;36.69;100891.75;6182870;23;20395;-80
2023/04/23 08:02:26;;;;;;;20.77;8.37;;;;;;;42.20;36.82;100888.56;6182382;23;20512;-81
2023/04/23 08:04:52;;;;;;;23.13;9.07;;;;;;;42.37;36.55;100888.41;6183076;23;20391;-80
2023/04/23 08:07:18;;;;;;;23.10;5.40;;;;;;;42.29;36.72;100892.00;6182896;23;20408;-80
2023/04/23 08:09:45;;;;;;;13.43;4.43;;;;;;;42.48;36.60;100891.47;6182871;23;20432;-81
2023/04/23 08:12:10;;;;;;;14.97;6.00;;;;;;;42.39;36.52;100892.38;6182984;23;20571;-83
2023/04/23 08:14:36;;;;;;;18.13;5.37;;;;;;;42.44;36.79;100885.91;6183206;23;20468;-82
2023/04/23 08:17:03;;;;;;;13.60;5.77;;;;;;;42.51;36.20;100888.88;6182823;23;20724;-82
2023/04/23 08:19:32;;;;;;;11.97;5.70;;;;;;;42.62;36.54;100890.06;6182597;23;20459;-83
2023/04/23 08:21:58;;;;;;;15.33;5.67;;;;;;;42.45;36.96;100889.44;6182919;23;20908;-82
2023/04/23 08:24:25;;;;;;;15.20;4.80;;;;;;;42.22;37.08;100891.75;6182232;23;20414;-84
2023/04/23 08:26:52;;;;;;;23.37;6.63;;;;;;;42.35;36.78;100896.91;6183780;23;20408;-81
2023/04/23 08:29:18;;;;;;;28.03;7.10;;;;;;;42.45;36.40;100900.34;6184793;23;20511;-84
2023/04/23 08:31:44;;;;;;;17.67;5.30;;;;;;;42.42;36.51;100899.09;6184316;23;20451;-82
2023/04/23 08:34:10;;;;;;;10.47;4.10;;;;;;;42.53;36.57;100899.44;6184213;23;20427;-83
2023/04/23 08:36:36;;;;;;;15.77;5.60;;;;;;;42.51;36.64;100896.28;6184508;23;20398;-81
2023/04/23 08:39:03;;;;;;;16.67;6.17;;;;;;;42.51;36.66;100894.34;6184675;23;20380;-80
2023/04/23 08:41:38;;;;;;;15.00;6.10;;;;;;;42.46;36.94;100905.47;6184588;23;20443;-80
2023/04/23 08:44:13;;;;;;;16.87;5.37;;;;;;;42.53;36.71;100899.44;6186322;23;20392;-80
2023/04/23 08:46:42;;;;;;;19.70;5.27;;;;;;;42.45;36.55;100900.34;6186364;23;20813;-81
2023/04/23 08:49:15;;;;;;;19.93;5.20;;;;;;;42.46;35.74;100894.56;6184472;23;20435;-81
2023/04/23 08:51:49;;;;;;;22.10;9.50;;;;;;;42.34;36.34;100903.50;6184479;23;20911;-79
2023/04/23 08:54:28;;;;;;;17.53;5.70;;;;;;;42.54;35.79;100914.69;6184251;23;20479;-80
2023/04/23 08:56:58;;;;;;;14.80;5.97;;;;;;;42.57;35.74;100911.28;6183183;23;20392;-80
2023/04/23 08:59:33;;;;;;;14.00;5.73;;;;;;;42.42;36.00;100903.72;6183935;23;20415;-81
2023/04/23 09:02:06;;;;;;;23.23;6.50;;;;;;;42.29;35.89;100908.34;6184429;23;20426;-82
2023/04/23 09:04:33;;;;;;;19.00;6.03;;;;;;;42.28;35.60;100913.00;6183314;23;20392;-82
2023/04/23 09:07:00;;;;;;;18.60;7.77;;;;;;;42.25;35.59;100921.88;6183789;23;20395;-81
2023/04/23 09:09:29;;;;;;;25.93;6.53;;;;;;;42.10;35.24;100925.16;6183802;23;20447;-80
2023/04/23 09:11:56;;;;;;;14.60;6.97;;;;;;;42.16;35.09;100921.13;6184537;23;20423;-80
2023/04/23 09:14:24;;;;;;;18.63;7.20;;;;;;;42.26;34.57;100917.22;6183620;23;20412;-79
2023/04/23 09:16:51;;;;;;;28.07;7.67;;;;;;;42.28;34.51;100918.47;6184205;23;20384;-80
2023/04/23 09:19:18;;;;;;;21.33;7.10;;;;;;;42.34;34.36;100922.56;6182759;23;20388;-80
2023/04/23 09:21:45;;;;;;;22.73;6.47;;;;;;;42.14;33.68;100928.84;6183369;23;20743;-85
2023/04/23 09:24:16;;;;;;;11.03;5.70;;;;;;;42.30;33.57;100929.84;6184171;23;20848;-80
2023/04/23 09:26:47;;;;;;;20.27;7.47;;;;;;;42.54;33.30;100926.41;6183825;23;20483;-80
2023/04/23 09:29:18;;;;;;;16.83;6.40;;;;;;;42.71;32.73;100932.81;6183332;23;20450;-82
2023/04/23 09:31:50;;;;;;;17.27;6.40;;;;;;;42.69;32.12;100935.91;6182908;23;20994;-82
2023/04/23 09:34:21;;;;;;;19.03;6.00;;;;;;;42.82;32.12;100933.97;6183864;23;20395;-81
2023/04/23 09:36:49;;;;;;;13.33;6.13;;;;;;;42.89;32.39;100939.66;6183693;23;20399;-81
2023/04/23 09:39:18;;;;;;;16.43;7.63;;;;;;;42.95;32.74;100941.03;6183940;23;20388;-85
2023/04/23 09:41:47;;;;;;;13.23;6.00;;;;;;;42.87;32.67;100940.00;6178859;23;20412;-79
2023/04/23 09:44:21;;;;;;;17.13;6.47;;;;;;;42.92;32.74;100958.91;6184841;23;20357;-79
2023/04/23 11:44:30;;;;;;;19.17;8.37;;;;;;;41.81;38.30;100917.91;6106995;22;1868929;-78
2023/04/23 11:47:00;;;;;;;24.00;6.43;;;;;;;41.85;37.89;100908.69;6165051;23;20172;-77
2023/04/23 11:49:26;;;;;;;23.93;8.13;;;;;;;42.02;37.82;100896.06;6193119;23;20875;-78
2023/04/23 11:51:53;;;;;;;24.00;6.10;;;;;;;42.03;38.12;100879.38;6166040;23;20894;-78
2023/04/23 11:54:27;;;;;;;20.73;7.53;;;;;;;42.16;37.98;100872.06;6166197;23;20380;-78
2023/04/23 11:56:54;;;;;;;20.67;7.40;;;;;;;42.18;37.92;100883.47;6166079;23;20392;-78
2023/04/23 11:59:20;;;;;;;23.67;7.50;;;;;;;42.45;38.14;100884.00;6165394;23;20400;-78
2023/04/23 12:01:53;;;;;;;19.97;6.90;;;;;;;42.57;37.79;100895.75;6166199;23;20388;-78
2023/04/23 12:04:29;;;;;;;17.47;6.73;;;;;;;42.73;37.16;100890.44;6166387;23;20411;-78
2023/04/23 12:06:56;;;;;;;25.50;7.23;;;;;;;42.73;36.51;100890.44;6192313;23;20395;-78
2023/04/23 12:09:25;;;;;;;14.50;5.60;;;;;;;42.88;37.30;100908.06;6166281;23;20372;-79
2023/04/23 12:11:52;;;;;;;18.13;7.30;;;;;;;42.96;36.82;100915.34;6192437;23;20395;-79
2023/04/23 12:14:25;;;;;;;23.43;9.77;;;;;;;42.87;36.74;100904.53;6165324;23;20430;-78
2023/04/23 12:16:51;;;;;;;21.07;10.67;;;;;;;42.77;37.18;100877.69;6166214;23;20446;-77
2023/04/23 12:19:26;;;;;;;21.57;9.87;;;;;;;42.74;36.97;100853.84;6192445;23;20372;-77
2023/04/23 12:21:53;;;;;;;23.13;8.70;;;;;;;42.86;37.09;100840.19;6166293;23;20743;-78
2023/04/23 12:24:24;;;;;;;16.83;8.60;;;;;;;42.86;36.80;100826.56;6165856;23;20879;-77
2023/04/23 12:26:53;;;;;;;18.63;9.07;;;;;;;42.85;35.93;100824.97;6166004;23;20855;-78
2023/04/23 12:29:21;;;;;;;21.90;9.47;;;;;;;42.82;34.88;100822.91;6165170;23;20895;-78
2023/04/23 12:31:49;;;;;;;27.87;7.97;;;;;;;42.87;35.13;100830.88;6165990;23;20391;-77
2023/04/23 12:34:18;;;;;;;19.90;8.00;;;;;;;42.80;35.10;100838.84;6165547;23;20387;-77
2023/04/23 12:36:50;;;;;;;17.50;8.20;;;;;;;42.84;35.28;100850.63;6165738;23;20403;-81
2023/04/23 12:39:21;;;;;;;20.63;8.73;;;;;;;42.88;35.64;100861.69;6165971;23;20438;-80
2023/04/23 12:41:55;;;;;;;15.63;6.40;;;;;;;42.83;34.72;100865.41;6162029;23;20387;-80
2023/04/23 12:44:21;;;;;;;26.50;11.20;;;;;;;42.85;35.53;100874.09;6137386;23;20440;-80
2023/04/23 12:46:57;;;;;;;24.57;8.83;;;;;;;42.85;35.33;100865.09;6126062;23;20441;-79
2023/04/23 12:49:23;;;;;;;14.33;8.60;;;;;;;42.86;35.47;100853.84;6100471;23;20405;-79
2023/04/23 12:51:51;;;;;;;21.40;7.90;;;;;;;42.81;35.05;100832.22;6100278;23;20425;-81
2023/04/23 12:54:17;;;;;;;22.33;8.00;;;;;;;42.93;35.07;100828.72;6126324;23;20358;-83
2023/04/23 12:56:43;;;;;;;19.13;6.43;;;;;;;42.88;36.02;100821.53;6100216;23;20422;-87
2023/04/23 12:59:09;;;;;;;25.30;7.77;;;;;;;42.94;36.17;100813.91;6123399;23;20370;-79
2023/04/23 13:01:35;;;;;;;17.60;6.50;;;;;;;42.96;36.16;100811.63;6124496;23;20712;-78
2023/04/23 13:04:01;;;;;;;13.47;6.30;;;;;;;42.95;35.93;100812.00;6098355;23;20410;-78
2023/04/23 13:06:28;;;;;;;18.57;5.47;;;;;;;42.80;35.57;100819.75;6099423;23;20398;-78
2023/04/23 13:08:54;;;;;;;23.40;8.70;;;;;;;42.72;35.76;100822.56;6097221;23;20454;-80
2023/04/23 13:11:21;;;;;;;19.87;7.50;;;;;;;42.77;35.91;100833.25;6100484;23;20867;-81
2023/04/23 13:13:46;;;;;;;16.47;7.20;;;;;;;42.76;36.44;100848.81;6098929;23;20382;-80